Cebu City, Philippines
Current Conditions -  °F | °C
As of 8:00 AM on Thursday 27 Nov 2014 (Local Time) from RPVM Reporting Station
Light Rain Light Rain  
Wind Chill: 79°   Ceiling: 8000
Heat Index: 83°   Visibility: 6mi
Dew Point: 77°   Wind: 7mph
Humidity: 94%   Direction: 40°NE
Pressure: 29.8"   Gusts: NA
Location:  10.3°N, 123.9°E
Report Text: RPVM 270000Z 04006KT 9000 -RA SCT020 OVC080 26/25 Q1009 RMK A2980
Loading
Personal Weather Stations






























Interactive Weather Map New forecast layout! Learn more

10-Day Weather Forecast

Advertisements
Track Severe Weather on mobile